Time;durP1;ratioP1;P1;durP2;ratioP2;P2;SDS_P1;SDS_P2;PMS_P1;PMS_P2;Temp;Humidity;BMP_temperature;BMP_pressure;BME280_temperature;BME280_humidity;BME280_pressure;Samples;Min_cycle;Max_cycle;Signal;HPM_P1;HPM_P2
2022/10/01 00:02:17;;;;;;;40.40;19.60;;;;;;;9.78;100.00;98446.83;221291;1269;22580;-76
2022/10/01 00:07:19;;;;;;;35.90;17.90;;;;;;;9.72;100.00;98448.94;221418;1270;23493;-75
2022/10/01 00:12:22;;;;;;;37.00;19.60;;;;;;;9.67;100.00;98456.93;221521;1268;22956;-76
2022/10/01 00:17:28;;;;;;;38.10;19.80;;;;;;;9.62;100.00;98459.36;221657;1267;25351;-75
2022/10/01 00:22:36;;;;;;;44.90;21.10;;;;;;;9.61;100.00;98451.51;221590;1268;25665;-76
2022/10/01 00:27:49;;;;;;;35.50;17.40;;;;;;;9.63;100.00;98447.46;221510;1268;25499;-75
2022/10/01 00:32:53;;;;;;;38.10;19.20;;;;;;;9.61;100.00;98445.80;221843;1268;22570;-76
2022/10/01 00:38:00;;;;;;;41.10;20.50;;;;;;;9.57;100.00;98455.90;222049;1268;22698;-76
2022/10/01 00:43:21;;;;;;;41.00;20.60;;;;;;;9.54;100.00;98456.67;221778;1268;22788;-75
2022/10/01 00:48:28;;;;;;;47.50;21.80;;;;;;;9.52;100.00;98456.82;221850;1268;22553;-76
2022/10/01 00:53:31;;;;;;;42.00;19.20;;;;;;;9.53;100.00;98457.08;221583;1267;24275;-76
2022/10/01 00:58:34;;;;;;;42.90;20.50;;;;;;;9.51;100.00;98453.27;221510;1268;25366;-75
2022/10/01 01:03:48;;;;;;;;;;;;;;;;;;;;;
2022/10/01 01:08:55;;;;;;;42.60;19.70;;;;;;;9.50;100.00;98448.07;221722;1268;22638;-75
2022/10/01 01:14:43;;;;;;;42.30;19.90;;;;;;;9.49;100.00;98444.63;221509;1267;24256;-76
2022/10/01 01:20:19;;;;;;;;;;;;;;;;;;;;;
2022/10/01 01:25:34;;;;;;;35.80;17.60;;;;;;;9.49;100.00;98436.11;221593;1267;22562;-76
2022/10/01 01:30:41;;;;;;;41.50;19.10;;;;;;;9.44;100.00;98439.27;221718;1267;22608;-75
2022/10/01 01:35:57;;;;;;;31.10;17.20;;;;;;;9.36;100.00;98443.30;221608;1268;25248;-76
2022/10/01 01:41:10;;;;;;;36.60;18.60;;;;;;;9.33;100.00;98443.40;221818;1268;22712;-74
2022/10/01 01:46:32;;;;;;;41.20;20.60;;;;;;;9.28;100.00;98450.77;221695;1267;172384;-75
2022/10/01 01:51:48;;;;;;;42.20;21.90;;;;;;;9.22;100.00;98451.06;221777;1267;24216;-76
2022/10/01 01:57:17;;;;;;;49.40;21.90;;;;;;;9.18;100.00;98452.25;221727;1267;22612;-75
2022/10/01 02:02:26;;;;;;;46.70;22.70;;;;;;;9.12;100.00;98450.98;221373;1271;25488;-75
2022/10/01 02:07:41;;;;;;;40.60;20.20;;;;;;;9.06;100.00;98448.91;220887;1272;25502;-75
2022/10/01 02:13:37;;;;;;;41.40;20.40;;;;;;;9.00;100.00;98452.30;221217;1271;24307;-75
2022/10/01 02:18:55;;;;;;;44.60;22.40;;;;;;;8.92;100.00;98446.25;219799;1279;22604;-75
2022/10/01 02:24:30;;;;;;;41.80;21.40;;;;;;;8.85;100.00;98443.40;221254;1271;22534;-75
2022/10/01 02:29:39;;;;;;;38.90;21.40;;;;;;;8.80;100.00;98454.72;221189;1271;25461;-75
2022/10/01 02:34:45;;;;;;;41.90;21.90;;;;;;;8.78;100.00;98456.72;221573;1267;24232;-75
2022/10/01 02:39:51;;;;;;;47.20;23.00;;;;;;;8.76;100.00;98448.62;221304;1267;22649;-75
2022/10/01 02:45:01;;;;;;;51.10;24.30;;;;;;;8.74;100.00;98442.34;221603;1267;24459;-75
2022/10/01 02:50:58;;;;;;;52.30;25.30;;;;;;;8.73;100.00;98448.77;221700;1267;25322;-75
2022/10/01 02:56:04;;;;;;;48.50;23.10;;;;;;;8.71;100.00;98452.77;221404;1268;22534;-75
2022/10/01 03:01:14;;;;;;;52.40;24.50;;;;;;;8.71;100.00;98452.41;221472;1268;24316;-75
2022/10/01 03:06:22;;;;;;;44.80;22.90;;;;;;;8.71;100.00;98450.85;221791;1268;26341;-76
2022/10/01 03:11:29;;;;;;;48.80;23.10;;;;;;;8.69;100.00;98447.41;221562;1267;25362;-75
2022/10/01 03:16:32;;;;;;;47.20;23.30;;;;;;;8.67;100.00;98444.81;221399;1267;24288;-77
2022/10/01 03:22:07;;;;;;;45.60;22.60;;;;;;;8.65;100.00;98438.42;221627;1267;25311;-75
2022/10/01 03:27:13;;;;;;;57.10;25.60;;;;;;;8.63;100.00;98432.30;221399;1268;22955;-76
2022/10/01 03:33:02;;;;;;;46.80;21.90;;;;;;;8.62;100.00;98421.96;221629;1267;22704;-74
2022/10/01 03:38:28;;;;;;;52.30;23.80;;;;;;;8.56;100.00;98411.82;221682;1267;22544;-74
2022/10/01 03:43:33;;;;;;;54.40;24.40;;;;;;;8.49;100.00;98408.90;221418;1268;25242;-75
2022/10/01 03:49:02;;;;;;;44.80;21.90;;;;;;;8.41;100.00;98403.62;221177;1270;25305;-74
2022/10/01 03:54:21;;;;;;;48.80;22.30;;;;;;;8.33;100.00;98400.88;221705;1268;22779;-75
2022/10/01 03:59:27;;;;;;;48.50;22.90;;;;;;;8.24;100.00;98394.61;221410;1268;23309;-75
2022/10/01 04:05:18;;;;;;;47.70;22.00;;;;;;;8.14;100.00;98394.81;221416;1268;25603;-75
2022/10/01 04:10:21;;;;;;;54.70;24.10;;;;;;;8.06;100.00;98386.36;221374;1268;22698;-75
2022/10/01 04:15:27;;;;;;;46.70;22.60;;;;;;;7.98;100.00;98384.61;221682;1268;22537;-75
2022/10/01 04:21:21;;;;;;;48.10;22.10;;;;;;;7.89;100.00;98371.25;221690;1268;25409;-76
2022/10/01 04:26:07;;;;;;;43.60;21.60;;;;;;;7.81;100.00;98368.38;221426;1267;24225;-75
2022/10/01 04:31:33;;;;;;;44.20;21.60;;;;;;;7.75;100.00;98376.59;221523;1267;23385;-75
2022/10/01 04:36:37;;;;;;;40.30;20.30;;;;;;;7.70;100.00;98377.11;221404;1267;22541;-75
2022/10/01 04:41:47;;;;;;;49.40;22.30;;;;;;;7.71;100.00;98382.69;221533;1266;24119;-74
2022/10/01 04:46:53;;;;;;;48.50;22.50;;;;;;;7.75;100.00;98388.86;221763;1268;22703;-75
2022/10/01 04:51:58;;;;;;;39.60;20.00;;;;;;;7.80;100.00;98390.14;221739;1267;22675;-75
2022/10/01 04:57:02;;;;;;;49.30;23.10;;;;;;;7.94;100.00;98389.02;221813;1267;22916;-75
2022/10/01 05:02:08;;;;;;;51.10;23.70;;;;;;;8.07;100.00;98387.02;221884;1267;22691;-75
2022/10/01 05:07:26;;;;;;;50.20;24.40;;;;;;;8.22;100.00;98384.81;221610;1267;22543;-75
2022/10/01 05:13:09;;;;;;;61.60;25.90;;;;;;;8.37;100.00;98388.98;221714;1268;25366;-75
2022/10/01 05:18:13;;;;;;;55.60;24.90;;;;;;;8.50;100.00;98381.82;221367;1267;24299;-75
2022/10/01 05:23:23;;;;;;;56.10;25.90;;;;;;;8.62;100.00;98380.36;221521;1267;22561;-75
2022/10/01 05:28:50;;;;;;;59.30;27.10;;;;;;;8.74;100.00;98372.85;221280;1267;24259;-75
2022/10/01 05:33:55;;;;;;;58.40;26.50;;;;;;;8.86;100.00;98374.20;221578;1267;22688;-75
2022/10/01 05:39:14;;;;;;;56.70;25.30;;;;;;;8.97;100.00;98375.55;221681;1267;24217;-76
2022/10/01 05:44:49;;;;;;;55.30;27.10;;;;;;;9.09;100.00;98378.50;221750;1267;22534;-76
2022/10/01 05:50:10;;;;;;;55.00;26.80;;;;;;;9.23;100.00;98381.56;220945;1271;25389;-76
2022/10/01 05:55:26;;;;;;;49.90;25.00;;;;;;;9.36;100.00;98381.98;221521;1271;22548;-75
2022/10/01 06:00:34;;;;;;;48.00;23.90;;;;;;;9.49;100.00;98385.48;221418;1270;25423;-75
2022/10/01 06:05:43;;;;;;;43.30;22.70;;;;;;;9.62;100.00;98389.84;221542;1271;22601;-75
2022/10/01 06:10:50;;;;;;;41.50;22.20;;;;;;;9.75;100.00;98386.63;221400;1271;23848;-75
2022/10/01 06:15:55;;;;;;;50.30;24.10;;;;;;;9.88;100.00;98383.80;221765;1268;25358;-76
2022/10/01 06:20:59;;;;;;;65.70;33.90;;;;;;;10.01;100.00;98377.38;221723;1268;25390;-76
2022/10/01 06:26:17;;;;;;;;;;;;;;;;;;;;;
2022/10/01 06:31:37;;;;;;;36.70;18.50;;;;;;;10.33;100.00;98371.46;221733;1267;24310;-76
2022/10/01 06:37:05;;;;;;;50.80;22.90;;;;;;;10.48;100.00;98371.95;221566;1267;25510;-76
2022/10/01 06:42:09;;;;;;;39.90;21.40;;;;;;;10.62;100.00;98373.46;221841;1267;22573;-74
2022/10/01 06:47:12;;;;;;;43.30;22.30;;;;;;;10.70;100.00;98372.54;222017;1267;22543;-75
2022/10/01 06:52:51;;;;;;;37.40;19.60;;;;;;;10.77;100.00;98369.99;221939;1267;22539;-75
2022/10/01 06:58:00;;;;;;;40.70;20.80;;;;;;;10.81;100.00;98376.02;222076;1267;24291;-75
2022/10/01 07:03:12;;;;;;;36.90;19.70;;;;;;;10.90;100.00;98372.17;222139;1267;24221;-75
2022/10/01 07:08:40;;;;;;;46.30;21.60;;;;;;;11.00;100.00;98368.45;222326;1268;25280;-76
2022/10/01 07:13:43;;;;;;;42.20;22.30;;;;;;;11.09;100.00;98363.53;222082;1267;24222;-77
2022/10/01 07:18:45;;;;;;;42.80;21.80;;;;;;;11.11;100.00;98365.54;222280;1267;22601;-77
2022/10/01 07:23:53;;;;;;;34.00;18.60;;;;;;;11.22;100.00;98354.39;221968;1267;25268;-77
2022/10/01 07:28:58;;;;;;;40.30;21.20;;;;;;;11.30;100.00;98354.76;222249;1267;22552;-77
2022/10/01 07:34:03;;;;;;;35.00;20.20;;;;;;;11.38;100.00;98350.19;222164;1267;24431;-76
2022/10/01 07:39:20;;;;;;;34.30;20.00;;;;;;;11.54;100.00;98353.36;222166;1267;22573;-76
2022/10/01 07:45:13;;;;;;;38.60;21.00;;;;;;;11.67;100.00;98354.64;222642;1268;22631;-76
2022/10/01 07:50:19;;;;;;;35.10;19.40;;;;;;;11.79;100.00;98348.63;222664;1268;22563;-76
2022/10/01 07:55:25;;;;;;;35.50;20.80;;;;;;;11.92;100.00;98340.04;222411;1267;24300;-76
2022/10/01 08:00:31;;;;;;;40.30;23.10;;;;;;;12.11;100.00;98342.80;221862;1267;24255;-76
2022/10/01 08:05:40;;;;;;;32.70;19.60;;;;;;;12.35;100.00;98343.58;222777;1267;23128;-76
2022/10/01 08:10:43;;;;;;;36.30;20.90;;;;;;;12.63;100.00;98336.30;222260;1267;25826;-76
2022/10/01 08:15:58;;;;;;;36.10;20.80;;;;;;;12.83;100.00;98334.91;222382;1267;23345;-76
2022/10/01 08:21:22;;;;;;;29.20;19.10;;;;;;;13.07;100.00;98333.52;222364;1267;23273;-79
2022/10/01 08:26:51;;;;;;;;;;;;;;;;;;;;;
2022/10/01 08:32:20;;;;;;;31.80;19.50;;;;;;;13.05;100.00;98330.35;221602;1270;24239;-75
2022/10/01 08:37:28;;;;;;;37.10;22.40;;;;;;;13.06;100.00;98330.11;221881;1270;22678;-76
2022/10/01 08:42:43;;;;;;;29.60;17.90;;;;;;;13.05;100.00;98334.30;221877;1270;22554;-76
2022/10/01 08:48:00;;;;;;;32.20;19.40;;;;;;;13.10;100.00;98331.90;221945;1270;22556;-76
2022/10/01 08:53:12;;;;;;;34.80;21.00;;;;;;;13.13;100.00;98332.26;222020;1270;24270;-76
2022/10/01 08:58:24;;;;;;;34.50;20.70;;;;;;;13.13;100.00;98335.04;222588;1267;23391;-75
2022/10/01 09:03:32;;;;;;;31.20;18.70;;;;;;;13.17;100.00;98334.14;222262;1267;24333;-75
2022/10/01 09:08:52;;;;;;;29.70;17.50;;;;;;;13.24;100.00;98329.01;222064;1267;24307;-75
2022/10/01 09:14:31;;;;;;;26.60;16.80;;;;;;;13.42;100.00;98323.26;222196;1267;23002;-75
2022/10/01 09:20:06;;;;;;;27.30;16.90;;;;;;;13.61;100.00;98313.52;222390;1267;22554;-75
2022/10/01 09:25:58;;;;;;;24.90;15.80;;;;;;;13.73;100.00;98308.10;222235;1267;22574;-76
2022/10/01 09:31:50;;;;;;;;;;;;;;;;;;;;;
2022/10/01 09:37:05;;;;;;;22.60;15.40;;;;;;;13.96;100.00;98300.77;222334;1267;26137;-76
2022/10/01 09:42:38;;;;;;;23.80;14.80;;;;;;;14.04;100.00;98297.48;222364;1267;22591;-76
2022/10/01 09:47:47;;;;;;;19.90;13.40;;;;;;;14.06;100.00;98299.40;222289;1267;22543;-77
2022/10/01 09:53:16;;;;;;;22.90;15.10;;;;;;;14.01;100.00;98296.44;222152;1267;23009;-78
2022/10/01 09:58:22;;;;;;;19.70;13.30;;;;;;;14.01;100.00;98284.34;222315;1267;23321;-77
2022/10/01 10:03:30;;;;;;;26.30;14.50;;;;;;;13.97;100.00;98278.50;222266;1267;22582;-77
2022/10/01 10:09:17;;;;;;;21.10;13.60;;;;;;;13.90;100.00;98275.13;222456;1267;25477;-76
2022/10/01 10:14:40;;;;;;;21.50;13.80;;;;;;;13.93;100.00;98270.59;222116;1267;23801;-76
2022/10/01 10:20:00;;;;;;;22.50;13.70;;;;;;;14.08;100.00;98252.15;222124;1267;24295;-77
2022/10/01 10:25:31;;;;;;;17.40;12.10;;;;;;;14.47;100.00;98245.03;222118;1267;22601;-76
2022/10/01 10:30:35;;;;;;;18.10;12.70;;;;;;;14.71;99.49;98233.48;222447;1267;24254;-76
2022/10/01 10:35:42;;;;;;;18.00;11.60;;;;;;;14.75;98.43;98226.09;222380;1267;24424;-76
2022/10/01 10:40:45;;;;;;;15.20;9.40;;;;;;;14.85;98.11;98218.35;222275;1267;24307;-76
2022/10/01 10:45:55;;;;;;;15.50;10.10;;;;;;;15.03;97.30;98210.73;222338;1267;25333;-76
2022/10/01 10:51:01;;;;;;;13.50;9.20;;;;;;;15.35;97.32;98191.95;222280;1267;23377;-76
2022/10/01 10:56:05;;;;;;;13.00;8.80;;;;;;;15.69;96.50;98189.38;222367;1267;22554;-77
2022/10/01 11:01:24;;;;;;;13.20;8.10;;;;;;;16.09;96.07;98177.28;222271;1267;24349;-77
2022/10/01 11:06:53;;;;;;;15.10;10.20;;;;;;;16.59;96.56;98155.27;222049;1267;22617;-79
2022/10/01 11:12:26;;;;;;;14.70;9.40;;;;;;;16.61;93.16;98144.61;221915;1267;25310;-78
2022/10/01 11:18:09;;;;;;;11.20;8.00;;;;;;;16.37;91.67;98141.76;221683;1267;22526;-77
2022/10/01 11:23:36;;;;;;;8.50;6.10;;;;;;;16.30;91.92;98134.22;221665;1267;25332;-78
2022/10/01 11:29:07;;;;;;;9.10;6.20;;;;;;;16.29;91.49;98123.21;222092;1267;22555;-78
2022/10/01 11:34:47;;;;;;;9.70;6.70;;;;;;;16.11;90.29;98110.95;221738;1267;22690;-78
2022/10/01 11:40:02;;;;;;;8.30;5.90;;;;;;;16.01;90.94;98097.46;221768;1267;24316;-78
2022/10/01 11:45:30;;;;;;;9.90;6.40;;;;;;;15.95;90.35;98092.91;221904;1267;22700;-77
2022/10/01 11:50:38;;;;;;;10.20;6.70;;;;;;;15.97;90.49;98091.87;221694;1268;26509;-78
2022/10/01 12:02:00;;;;;;;9.30;4.80;;;;;;;16.15;89.13;98090.39;221895;1267;22564;-77
2022/10/01 12:07:12;;;;;;;6.70;4.50;;;;;;;16.07;88.86;98083.91;221698;1267;22584;-78
2022/10/01 12:12:41;;;;;;;5.40;4.30;;;;;;;16.00;88.89;98077.14;221950;1267;24253;-78
2022/10/01 12:18:17;;;;;;;;;;;;;;;;;;;;;
2022/10/01 12:23:49;;;;;;;5.70;3.90;;;;;;;16.02;89.50;98063.39;222099;1267;22660;-79
2022/10/01 12:29:23;;;;;;;6.30;3.60;;;;;;;15.86;88.99;98063.92;221466;1267;22734;-79
2022/10/01 12:34:47;;;;;;;5.70;4.10;;;;;;;15.73;89.38;98056.11;221720;1267;25257;-78
2022/10/01 12:40:16;;;;;;;7.60;5.40;;;;;;;15.71;89.25;98052.91;221726;1267;22545;-80
2022/10/01 12:45:35;;;;;;;7.10;4.20;;;;;;;15.64;88.22;98052.38;221968;1267;22766;-78
2022/10/01 12:51:15;;;;;;;6.90;3.60;;;;;;;15.58;88.36;98049.10;221735;1267;24296;-78
2022/10/01 12:57:10;;;;;;;5.70;4.10;;;;;;;15.52;88.30;98043.08;221844;1267;22588;-78
2022/10/01 13:02:44;;;;;;;6.50;4.20;;;;;;;15.45;88.70;98041.92;221488;1267;22542;-77
2022/10/01 13:08:37;;;;;;;6.30;3.90;;;;;;;15.37;88.81;98036.81;221612;1267;25254;-77
2022/10/01 13:13:41;;;;;;;5.50;4.20;;;;;;;15.28;88.55;98032.98;221947;1267;22559;-78
2022/10/01 13:19:33;;;;;;;7.10;4.50;;;;;;;15.16;88.58;98032.44;221609;1267;22697;-78
2022/10/01 13:25:11;;;;;;;6.20;4.20;;;;;;;15.04;89.15;98022.45;221992;1267;22636;-77
2022/10/01 13:31:10;;;;;;;5.80;4.20;;;;;;;15.02;89.36;98024.92;221809;1267;22557;-77
2022/10/01 13:36:48;;;;;;;5.40;2.80;;;;;;;15.01;89.06;98019.35;221985;1267;24417;-78
2022/10/01 13:41:57;;;;;;;4.70;2.80;;;;;;;15.00;89.23;98019.71;221764;1267;22540;-77
2022/10/01 13:47:05;;;;;;;6.20;4.20;;;;;;;15.07;89.33;98014.77;218401;1267;5367756;-77
2022/10/01 13:52:20;;;;;;;6.10;3.60;;;;;;;15.24;89.06;98011.77;221401;1269;22584;-78
2022/10/01 13:57:57;;;;;;;3.20;2.80;;;;;;;15.38;88.52;98001.23;221556;1267;22552;-77
2022/10/01 14:03:22;;;;;;;4.40;3.40;;;;;;;15.49;88.25;97988.98;221749;1267;22549;-77
2022/10/01 14:08:30;;;;;;;3.50;2.60;;;;;;;15.54;88.40;97988.21;222024;1268;23099;-77
2022/10/01 14:19:03;;;;;;;5.40;3.50;;;;;;;15.53;87.86;97975.31;221884;1267;25135;-77
2022/10/01 14:24:27;;;;;;;6.50;4.50;;;;;;;15.52;88.07;97976.20;221892;1268;22629;-77
2022/10/01 14:30:10;;;;;;;4.80;3.70;;;;;;;15.50;88.17;97974.38;221869;1267;23960;-76
2022/10/01 14:35:31;;;;;;;6.30;3.70;;;;;;;15.48;88.00;97958.64;221710;1267;22677;-78
2022/10/01 14:40:40;;;;;;;5.60;4.10;;;;;;;15.41;87.85;97949.34;221739;1267;22589;-78
2022/10/01 14:46:12;;;;;;;8.10;4.70;;;;;;;15.39;88.05;97944.39;221820;1267;22570;-78
2022/10/01 14:51:50;;;;;;;6.50;4.00;;;;;;;15.43;88.25;97941.60;221989;1267;22592;-78
2022/10/01 14:56:52;;;;;;;9.40;4.60;;;;;;;15.43;88.15;97939.85;221982;1267;25055;-77
2022/10/01 15:02:00;;;;;;;6.80;5.00;;;;;;;15.35;87.53;97935.69;221678;1267;24275;-76
2022/10/01 15:07:10;;;;;;;7.70;5.50;;;;;;;15.18;86.34;97934.02;222296;1267;25370;-77
2022/10/01 15:17:42;;;;;;;8.10;4.40;;;;;;;14.85;86.06;97927.70;221756;1267;25357;-77
2022/10/01 15:22:54;;;;;;;8.40;5.50;;;;;;;14.72;86.06;97927.42;221930;1267;22543;-78
2022/10/01 15:28:13;;;;;;;7.00;4.80;;;;;;;14.57;86.11;97923.32;221501;1267;22531;-75
2022/10/01 15:33:49;;;;;;;8.40;3.90;;;;;;;14.41;85.99;97920.72;221719;1267;25402;-78
2022/10/01 15:39:05;;;;;;;8.10;5.40;;;;;;;14.24;86.47;97926.92;221684;1269;26516;-78
2022/10/01 15:44:35;;;;;;;10.90;5.10;;;;;;;14.10;86.95;97929.05;221853;1267;22552;-77
2022/10/01 15:49:39;;;;;;;8.60;5.50;;;;;;;13.98;87.27;97924.48;221672;1267;22550;-76
2022/10/01 16:00:21;;;;;;;8.40;6.00;;;;;;;13.76;87.95;97925.88;221787;1267;25492;-77
2022/10/01 16:05:35;;;;;;;7.50;5.10;;;;;;;13.67;88.32;97913.92;221822;1268;22563;-76
2022/10/01 16:10:44;;;;;;;7.80;5.20;;;;;;;13.56;88.63;97907.40;221696;1267;22709;-77
2022/10/01 16:16:19;;;;;;;6.90;4.80;;;;;;;13.44;89.04;97901.04;221963;1269;24292;-76
2022/10/01 16:22:17;;;;;;;7.90;6.50;;;;;;;13.32;89.60;97893.76;221650;1267;22529;-77
2022/10/01 16:27:30;;;;;;;9.90;6.30;;;;;;;13.25;89.99;97896.94;221511;1267;25441;-77
2022/10/01 16:32:47;;;;;;;9.60;6.10;;;;;;;13.21;90.36;97897.02;221966;1267;26419;-77
2022/10/01 16:37:56;;;;;;;8.50;5.90;;;;;;;13.18;90.72;97901.38;221830;1268;24317;-77
2022/10/01 16:43:09;;;;;;;12.60;7.80;;;;;;;13.15;91.07;97897.26;222106;1267;22593;-77
2022/10/01 16:48:18;;;;;;;9.60;6.30;;;;;;;13.12;91.21;97894.36;221647;1267;22538;-77
2022/10/01 16:53:28;;;;;;;10.30;6.80;;;;;;;13.08;91.35;97881.33;221670;1267;22490;-77
2022/10/01 16:58:31;;;;;;;14.40;8.50;;;;;;;13.04;91.70;97879.95;221937;1267;22557;-76
2022/10/01 17:03:34;;;;;;;15.00;10.10;;;;;;;13.00;91.91;97880.20;222026;1267;23951;-77
2022/10/01 17:08:37;;;;;;;17.10;9.50;;;;;;;12.98;92.25;97873.19;221671;1267;26229;-76
2022/10/01 17:13:42;;;;;;;16.20;9.20;;;;;;;12.97;92.57;97877.21;221786;1267;22938;-76
2022/10/01 17:18:47;;;;;;;17.80;8.40;;;;;;;12.95;92.82;97878.62;221937;1268;25239;-77
2022/10/01 17:23:57;;;;;;;13.30;8.40;;;;;;;12.93;92.94;97880.27;221777;1267;22541;-78
2022/10/01 17:29:05;;;;;;;14.10;7.80;;;;;;;12.90;93.13;97882.02;221582;1268;22581;-77
2022/10/01 17:34:07;;;;;;;11.80;7.60;;;;;;;12.89;93.10;97881.38;221632;1268;25333;-77
2022/10/01 17:39:10;;;;;;;12.00;7.00;;;;;;;12.90;92.55;97882.63;221635;1270;25289;-77
2022/10/01 17:44:35;;;;;;;6.00;4.00;;;;;;;12.88;90.89;97883.04;221774;1268;24986;-76
2022/10/01 17:49:38;;;;;;;4.70;3.20;;;;;;;12.83;88.89;97892.83;221878;1268;25304;-77
2022/10/01 17:54:40;;;;;;;6.00;3.60;;;;;;;12.72;87.88;97909.45;221674;1268;26382;-76
2022/10/01 17:59:42;;;;;;;5.50;3.00;;;;;;;12.59;88.20;97919.75;221840;1271;26376;-77
2022/10/01 18:04:45;;;;;;;5.00;3.10;;;;;;;12.37;88.51;97927.05;221757;1270;24305;-77
2022/10/01 18:09:54;;;;;;;3.20;2.10;;;;;;;12.13;88.74;97930.64;221599;1269;22553;-79
2022/10/01 18:14:56;;;;;;;4.20;2.30;;;;;;;11.90;89.15;97940.86;221580;1268;25352;-76
2022/10/01 18:19:59;;;;;;;4.30;1.90;;;;;;;11.68;89.50;97943.23;221734;1268;24219;-77
2022/10/01 18:25:02;;;;;;;3.00;1.90;;;;;;;11.48;89.70;97943.69;221659;1271;22562;-71
2022/10/01 18:30:09;;;;;;;2.40;1.60;;;;;;;11.28;90.21;97941.20;221710;1270;24309;-73
2022/10/01 18:35:39;;;;;;;;;;;;;;;;;;;;;
2022/10/01 18:40:55;;;;;;;3.50;2.70;;;;;;;10.93;91.08;97944.02;221643;1271;24227;-71
2022/10/01 18:46:42;;;;;;;4.50;2.60;;;;;;;10.76;91.54;97950.80;221863;1268;27539;-74
2022/10/01 18:52:24;;;;;;;5.60;2.70;;;;;;;10.64;92.48;97952.73;221274;1268;22601;-72
2022/10/01 18:58:00;;;;;;;4.30;2.60;;;;;;;10.56;92.71;97956.36;221746;1267;22624;-70
2022/10/01 19:03:34;;;;;;;2.80;2.10;;;;;;;10.50;92.89;97969.13;221494;1268;23702;-72
2022/10/01 19:09:08;;;;;;;3.80;2.20;;;;;;;10.45;92.81;97990.23;221593;1268;24221;-72
2022/10/01 19:14:37;;;;;;;4.40;2.60;;;;;;;10.38;93.08;97992.20;221957;1270;24338;-73
2022/10/01 19:20:52;;;;;;;;;;;;;;;;;;;;;
2022/10/01 19:26:08;;;;;;;5.70;2.90;;;;;;;10.19;93.69;98002.12;221898;1268;22531;-72
2022/10/01 19:31:42;;;;;;;3.40;2.20;;;;;;;10.12;94.04;97999.02;221714;1268;22470;-71
2022/10/01 19:37:11;;;;;;;3.10;1.60;;;;;;;10.03;94.32;97998.91;221860;1268;22572;-72
2022/10/01 19:42:28;;;;;;;4.50;1.60;;;;;;;9.95;94.71;98001.45;221558;1268;25322;-72
2022/10/01 19:48:05;;;;;;;1.40;1.30;;;;;;;9.87;95.32;98009.29;221881;1268;23834;-70
2022/10/01 19:53:22;;;;;;;2.30;1.40;;;;;;;9.81;95.65;98007.34;221956;1268;25328;-71
2022/10/01 19:58:25;;;;;;;2.90;2.40;;;;;;;9.74;96.02;98007.38;221686;1268;22644;-72
2022/10/01 20:03:43;;;;;;;6.90;3.10;;;;;;;9.69;96.43;98010.54;221688;1268;26748;-72
2022/10/01 20:08:59;;;;;;;4.60;2.60;;;;;;;9.64;96.97;98008.98;221782;1267;22540;-72
2022/10/01 20:20:15;;;;;;;6.90;3.30;;;;;;;9.57;97.94;98009.77;221303;1270;24541;-72
2022/10/01 20:25:32;;;;;;;4.60;2.80;;;;;;;9.55;98.17;98011.98;221396;1270;25225;-73
2022/10/01 20:31:04;;;;;;;4.50;2.80;;;;;;;9.53;98.43;98021.23;221373;1270;25468;-71
2022/10/01 20:36:16;;;;;;;4.30;2.70;;;;;;;9.49;98.80;98018.34;221431;1270;22541;-70
2022/10/01 20:41:28;;;;;;;6.10;3.10;;;;;;;9.42;99.35;98021.35;221331;1270;22582;-71
2022/10/01 20:46:42;;;;;;;4.70;2.40;;;;;;;9.37;99.50;98023.77;221671;1267;24207;-71
2022/10/01 20:51:57;;;;;;;4.70;2.70;;;;;;;9.34;99.54;98032.81;221665;1267;22569;-71
2022/10/01 20:57:12;;;;;;;5.70;2.40;;;;;;;9.34;99.65;98036.80;222044;1268;22529;-72
2022/10/01 21:03:01;;;;;;;5.00;2.70;;;;;;;9.35;99.84;98045.48;221773;1267;22782;-72
2022/10/01 21:08:54;;;;;;;4.60;2.90;;;;;;;9.36;100.00;98050.52;221879;1268;22560;-72
2022/10/01 21:14:19;;;;;;;4.50;2.80;;;;;;;9.35;100.00;98052.13;221601;1267;25255;-73
2022/10/01 21:19:57;;;;;;;3.30;2.40;;;;;;;9.36;100.00;98049.80;221778;1267;25316;-71
2022/10/01 21:26:17;;;;;;;3.70;2.40;;;;;;;9.38;100.00;98054.05;221744;1267;25406;-72
2022/10/01 21:31:32;;;;;;;3.10;2.20;;;;;;;9.42;100.00;98061.61;220746;1273;23075;-73
2022/10/01 21:37:02;;;;;;;3.10;2.00;;;;;;;9.48;100.00;98062.20;221452;1267;22682;-72
2022/10/01 21:42:15;;;;;;;3.40;2.00;;;;;;;9.53;100.00;98054.17;221855;1267;25252;-74
2022/10/01 21:48:02;;;;;;;3.20;2.10;;;;;;;9.58;100.00;98059.80;221730;1267;25342;-72
2022/10/01 21:53:56;;;;;;;3.50;2.10;;;;;;;9.64;100.00;98057.90;221832;1267;24132;-72
2022/10/01 21:59:10;;;;;;;4.50;2.20;;;;;;;9.68;100.00;98061.72;220640;1274;24487;-72
2022/10/01 22:04:37;;;;;;;2.30;1.90;;;;;;;9.71;100.00;98062.73;221645;1267;22587;-72
2022/10/01 22:09:52;;;;;;;3.00;2.10;;;;;;;9.76;100.00;98072.47;221466;1267;22542;-72
2022/10/01 22:14:58;;;;;;;2.50;2.20;;;;;;;9.80;100.00;98071.02;221490;1267;23032;-73
2022/10/01 22:20:03;;;;;;;3.50;1.90;;;;;;;9.81;100.00;98067.77;221913;1268;22557;-74
2022/10/01 22:25:27;;;;;;;4.60;2.00;;;;;;;9.82;100.00;98075.73;221948;1267;22529;-74
2022/10/01 22:30:33;;;;;;;2.10;1.80;;;;;;;9.83;100.00;98082.98;221835;1268;22637;-72
2022/10/01 22:36:14;;;;;;;2.50;1.70;;;;;;;9.83;100.00;98089.34;221652;1267;22922;-74
2022/10/01 22:41:45;;;;;;;2.00;1.60;;;;;;;9.83;100.00;98092.52;221859;1267;22560;-74
2022/10/01 22:47:49;;;;;;;;;;;;;;;;;;;;;
2022/10/01 22:53:49;;;;;;;2.30;2.00;;;;;;;9.74;100.00;98091.67;221083;1273;24328;-72
2022/10/01 22:59:11;;;;;;;2.50;1.70;;;;;;;9.72;100.00;98094.27;221358;1267;22705;-70
2022/10/01 23:05:07;;;;;;;3.00;1.80;;;;;;;9.71;100.00;98100.99;221513;1267;26361;-71
2022/10/01 23:10:46;;;;;;;3.40;2.00;;;;;;;9.71;100.00;98109.75;221370;1270;22523;-73
2022/10/01 23:16:13;;;;;;;3.70;2.10;;;;;;;9.72;100.00;98113.86;221646;1267;22529;-72
2022/10/01 23:21:41;;;;;;;3.10;1.70;;;;;;;9.73;100.00;98116.77;221906;1267;22704;-72
2022/10/01 23:27:17;;;;;;;3.20;2.10;;;;;;;9.76;100.00;98119.61;221619;1267;25330;-71
2022/10/01 23:32:49;;;;;;;2.80;1.80;;;;;;;9.78;100.00;98121.77;221558;1267;22652;-73
2022/10/01 23:39:00;;;;;;;2.10;1.70;;;;;;;9.80;100.00;98133.71;221743;1267;22558;-73
2022/10/01 23:44:51;;;;;;;;;;;;;;;;;;;;;
2022/10/01 23:50:19;;;;;;;;;;;;;;;;;;;;;
